WetterOnline ( https://www.wetteronline.de )

Wetter aktuell Donauwörth

Aktuelles Wetter: Harburg (503m)

6-stündlich | Neueste Meldungen
Ortszeit Temperatur Wetter
Fr, 22.01. 7:00 5.8° C wolkenlos
Fr, 22.01. 1:00 4.6° C bedeckt
Do, 21.01. 19:00 7.1° C bedeckt
Do, 21.01. 13:00 7.7° C wolkig
Do, 21.01. 7:00 -1.3° C bewölkt
Do, 21.01. 1:00 -1.3° C bedeckt
Mi, 20.01. 19:00 2.7° C bewölkt
Mi, 20.01. 13:00 4.5° C bedeckt
Ortszeit Temperatur Wetter
Fr, 22.01. 10:00 6.8° C wolkig
Fr, 22.01. 9:50 6.8° C wolkig
Fr, 22.01. 9:40 6.7° C wolkig
Fr, 22.01. 9:30 6.4° C bewölkt
Fr, 22.01. 9:20 6.4° C bewölkt
Fr, 22.01. 9:10 6.1° C bewölkt
Fr, 22.01. 9:00 6.1° C bedeckt
Fr, 22.01. 8:30 5.8° C wolkig
Fr, 22.01. 8:00 5.8° C leicht bewölkt
Fr, 22.01. 7:30 5.5° C wolkenlos
Fr, 22.01. 7:00 5.8° C wolkenlos
Ortszeit Relative Feuchte Sichtweite
Fr, 22.01. 7:00 73% >70 km
Fr, 22.01. 1:00 69% 40 km
Do, 21.01. 19:00 70% 14 km
Do, 21.01. 13:00 54% 55 km
Do, 21.01. 7:00 91% 19 km
Do, 21.01. 1:00 92% 22 km
Mi, 20.01. 19:00 69% 40 km
Mi, 20.01. 13:00 60% 55 km
Ortszeit Relative Feuchte Sichtweite
Fr, 22.01. 10:00 69% 55 km
Fr, 22.01. 9:50 69% -
Fr, 22.01. 9:40 69% -
Fr, 22.01. 9:30 70% >70 km
Fr, 22.01. 9:20 70% -
Fr, 22.01. 9:10 72% -
Fr, 22.01. 9:00 72% 50 km
Fr, 22.01. 8:30 73% 65 km
Fr, 22.01. 8:00 74% 65 km
Fr, 22.01. 7:30 75% 65 km
Fr, 22.01. 7:00 73% >70 km
Ortszeit Niederschlagsmenge Niederschlagsart
Fr, 22.01. 7:00 0.1 l/m2 in 12 Std. Regen
Fr, 22.01. 1:00 0.0 l/m2 in 6 Std. -
Do, 21.01. 19:00 0.1 l/m2 in 12 Std. Regen
Do, 21.01. 13:00 0.0 l/m2 in 6 Std. -
Do, 21.01. 7:00 0.0 l/m2 in 12 Std. -
Do, 21.01. 1:00 0.0 l/m2 in 6 Std. -
Mi, 20.01. 19:00 0.0 l/m2 in 12 Std. -
Mi, 20.01. 13:00 0.0 l/m2 in 6 Std. -
Ortszeit Niederschlagsmenge Niederschlagsart
Fr, 22.01. 10:00 0.0 l/m2 in 1 Std. -
Fr, 22.01. 9:50 keine Meldung -
Fr, 22.01. 9:40 keine Meldung -
Fr, 22.01. 9:30 0.0 l/m2 in 1 Std. -
Fr, 22.01. 9:20 keine Meldung -
Fr, 22.01. 9:10 keine Meldung -
Fr, 22.01. 9:00 0.0 l/m2 in 1 Std. -
Fr, 22.01. 8:30 0.0 l/m2 in 1 Std. -
Fr, 22.01. 8:00 0.0 l/m2 in 1 Std. -
Fr, 22.01. 7:30 0.0 l/m2 in 1 Std. -
Fr, 22.01. 7:00 0.0 l/m2 in 1 Std. Regen
Ortszeit Stärke Spitze Richtung
km/h Bft. km/h Grad Sektor
Fr, 22.01. 7:00 28 4 46 210° SW
Fr, 22.01. 1:00 11 2 29 180° S
Do, 21.01. 19:00 18 3 61 190° S
Do, 21.01. 13:00 22 4 41 210° SW
Do, 21.01. 7:00 26 4 31 160° S
Do, 21.01. 1:00 13 3 24 150° SO
Mi, 20.01. 19:00 18 3 32 150° SO
Mi, 20.01. 13:00 9 2 33 170° S
Ortszeit Stärke Spitze Richtung
km/h Bft. km/h Grad Sektor
Fr, 22.01. 10:00 15 3 31 160° S
Fr, 22.01. 9:50 15 3 - 160° S
Fr, 22.01. 9:40 15 3 - 160° S
Fr, 22.01. 9:30 14 3 32 180° S
Fr, 22.01. 9:20 14 3 - 180° S
Fr, 22.01. 9:10 14 3 - 180° S
Fr, 22.01. 9:00 25 4 40 200° S
Fr, 22.01. 8:30 22 4 40 190° S
Fr, 22.01. 8:00 14 3 40 200° S
Fr, 22.01. 7:30 19 3 39 200° S
Fr, 22.01. 7:00 28 4 44 210° SW
Ortszeit Untergrenze Bedeckung Gattung
total tief tief mittel hoch
Fr, 22.01. 7:00 - 0/8 0/8 - - -
Fr, 22.01. 1:00 1500 m 8/8 8/8 - - -
Do, 21.01. 19:00 2100 m 8/8 8/8 - - -
Do, 21.01. 13:00 3600 m 7/8 7/8 - - -
Do, 21.01. 7:00 1800 m 7/8 7/8 - - -
Do, 21.01. 1:00 4200 m 8/8 8/8 - - -
Mi, 20.01. 19:00 3600 m 8/8 4/8 - - -
Mi, 20.01. 13:00 3900 m 8/8 8/8 - - -
Ortszeit Bedeckungsgrad in Achtel und Wolkenuntergrenze
Fr, 22.01. 10:00 7(9000m) 8(9000m)
Fr, 22.01. 9:50 7(9000m) 8(9000m)
Fr, 22.01. 9:40 1(5100m) 8(8700m) 8(9000m)
Fr, 22.01. 9:30 4(5100m) 8(8400m) 8(9000m)
Fr, 22.01. 9:20 4(5100m) 8(8400m) 8(9000m)
Fr, 22.01. 9:10 5(5100m) 5(6900m) 8(8400m)
Fr, 22.01. 9:00 8(5100m) 8(6900m) 8(8700m)
Fr, 22.01. 8:30 7(9000m) 7(9000m)
Fr, 22.01. 8:00 2(4800m) 4(9000m)
Fr, 22.01. 7:30 keine Wolken
Fr, 22.01. 7:00 keine Wolken
Ortszeit Luftdruck NN (hPa) Tendenz (hPa in 3 Std.)
Fr, 22.01. 7:00 997 - 0,9
Fr, 22.01. 1:00 1001 - 0,2
Do, 21.01. 19:00 1002 - 0,6
Do, 21.01. 13:00 1004 + 0,2
Do, 21.01. 7:00 1005 - 0,9
Do, 21.01. 1:00 1007 - 0,9
Mi, 20.01. 19:00 1008 - 0,9
Mi, 20.01. 13:00 1011 - 1,7
Ortszeit Luftdruck NN (hPa) Tendenz (hPa in 3 Std.)
Fr, 22.01. 10:00 997 - 0,2
Fr, 22.01. 9:50 997 keine Meldung
Fr, 22.01. 9:40 997 keine Meldung
Fr, 22.01. 9:30 997 + 0,1
Fr, 22.01. 9:20 997 keine Meldung
Fr, 22.01. 9:10 997 keine Meldung
Fr, 22.01. 9:00 997 - 0,1
Fr, 22.01. 8:30 997 - 0,7
Fr, 22.01. 8:00 997 - 1,2
Fr, 22.01. 7:30 997 - 1,1
Fr, 22.01. 7:00 997 - 0,9
Ortszeit Schneehöhe (cm)
Fr, 22.01. 7:00 0
Fr, 22.01. 1:00 0
Do, 21.01. 19:00 0
Do, 21.01. 13:00 2
Do, 21.01. 7:00 3
Do, 21.01. 1:00 3
Mi, 20.01. 19:00 3
Mi, 20.01. 13:00 4
Ortszeit Schneehöhe (cm)
Fr, 22.01. 10:00 0
Fr, 22.01. 9:50 0
Fr, 22.01. 9:40 0
Fr, 22.01. 9:30 0
Fr, 22.01. 9:20 0
Fr, 22.01. 9:10 0
Fr, 22.01. 9:00 0
Fr, 22.01. 8:30 0
Fr, 22.01. 8:00 0
Fr, 22.01. 7:30 0
Fr, 22.01. 7:00 0
Link zu dieser Seite / Seite empfehlen

Das Wetter in ...